createdAt,value
2018-12-08T00:00:07.874Z,955.99
2018-12-08T00:01:17.819Z,955.94
2018-12-08T00:02:27.749Z,955.94
2018-12-08T00:03:37.682Z,955.92
2018-12-08T00:04:47.663Z,955.86
2018-12-08T00:05:57.601Z,955.87
2018-12-08T00:07:07.537Z,955.85
2018-12-08T00:08:17.464Z,955.83
2018-12-08T00:09:27.391Z,955.82
2018-12-08T00:10:37.376Z,955.83
2018-12-08T00:11:47.309Z,955.81
2018-12-08T00:12:57.244Z,955.77
2018-12-08T00:14:07.177Z,955.75
2018-12-08T00:15:17.111Z,955.76
2018-12-08T00:16:27.043Z,955.7
2018-12-08T00:17:36.720Z,955.75
2018-12-08T00:18:46.654Z,955.76
2018-12-08T00:19:56.591Z,955.72
2018-12-08T00:21:06.305Z,955.69
2018-12-08T00:22:16.392Z,955.68
2018-12-08T00:23:26.321Z,955.7
2018-12-08T00:24:36.251Z,955.67
2018-12-08T00:25:46.187Z,955.62
2018-12-08T00:26:56.121Z,955.68
2018-12-08T00:28:06.103Z,955.71
2018-12-08T00:29:16.039Z,955.69
2018-12-08T00:30:25.971Z,955.69
2018-12-08T00:31:35.900Z,955.65
2018-12-08T00:32:45.835Z,955.64
2018-12-08T00:33:55.560Z,955.58
2018-12-08T00:35:05.490Z,955.57
2018-12-08T00:36:15.499Z,955.53
2018-12-08T00:37:25.519Z,955.52
2018-12-08T00:38:35.449Z,955.45
2018-12-08T00:39:45.531Z,955.42
2018-12-08T00:40:55.532Z,955.47
2018-12-08T00:42:05.464Z,955.43
2018-12-08T00:43:15.396Z,955.41
2018-12-08T00:44:25.321Z,955.47
2018-12-08T00:45:35.285Z,955.46
2018-12-08T00:46:45.218Z,955.43
2018-12-08T00:47:55.154Z,955.43
2018-12-08T00:49:05.088Z,955.4
2018-12-08T00:50:15.019Z,955.35
2018-12-08T00:51:25.100Z,955.34
2018-12-08T00:52:35.040Z,955.36
2018-12-08T00:53:44.968Z,955.3
2018-12-08T00:54:54.898Z,955.31
2018-12-08T00:56:04.855Z,955.25
2018-12-08T00:57:14.933Z,955.27
2018-12-08T00:58:24.864Z,955.18
2018-12-08T00:59:34.796Z,955.17
2018-12-08T01:00:44.723Z,955.14
2018-12-08T01:01:54.650Z,955.13
2018-12-08T01:03:04.627Z,955.12
2018-12-08T01:04:14.563Z,955.11
2018-12-08T01:05:24.496Z,955.08
2018-12-08T01:06:34.425Z,955.07
2018-12-08T01:07:44.367Z,955.02
2018-12-08T01:08:54.360Z,955.01
2018-12-08T01:10:04.289Z,954.99
2018-12-08T01:11:13.965Z,955.03
2018-12-08T01:12:23.909Z,955.01
2018-12-08T01:13:33.840Z,955.02
2018-12-08T01:14:43.971Z,955.01
2018-12-08T01:15:53.900Z,954.99
2018-12-08T01:17:03.832Z,954.99
2018-12-08T01:18:13.771Z,954.99
2018-12-08T01:19:23.703Z,954.98
2018-12-08T01:20:33.734Z,954.97
2018-12-08T01:21:43.661Z,954.98
2018-12-08T01:22:53.590Z,954.98
2018-12-08T01:24:03.519Z,954.92
2018-12-08T01:25:13.447Z,954.91
2018-12-08T01:26:23.448Z,954.86
2018-12-08T01:27:33.211Z,954.86
2018-12-08T01:28:43.916Z,954.88
2018-12-08T01:29:53.853Z,954.83
2018-12-08T01:31:03.785Z,954.87
2018-12-08T01:32:13.860Z,954.85
2018-12-08T01:33:23.824Z,954.83
2018-12-08T01:34:33.752Z,954.78
2018-12-08T01:35:43.687Z,954.8
2018-12-08T01:36:53.620Z,954.82
2018-12-08T01:38:03.606Z,954.76
2018-12-08T01:39:13.534Z,954.81
2018-12-08T01:40:23.462Z,954.8
2018-12-08T01:41:33.388Z,954.73
2018-12-08T01:42:43.739Z,954.69
2018-12-08T01:43:53.770Z,954.63
2018-12-08T01:45:03.693Z,954.63
2018-12-08T01:46:13.622Z,954.59
2018-12-08T01:47:23.551Z,954.59
2018-12-08T01:48:33.474Z,954.58
2018-12-08T01:49:43.591Z,954.52
2018-12-08T01:50:53.530Z,954.54
2018-12-08T01:52:03.514Z,954.49
2018-12-08T01:53:13.451Z,954.49
2018-12-08T01:54:23.374Z,954.46
2018-12-08T01:55:33.413Z,954.39
2018-12-08T01:56:43.335Z,954.43
2018-12-08T01:57:53.262Z,954.45
2018-12-08T01:59:03.189Z,954.39
2018-12-08T02:00:13.129Z,954.45
2018-12-08T02:01:23.107Z,954.45
2018-12-08T02:02:33.039Z,954.41
2018-12-08T02:03:42.969Z,954.39
2018-12-08T02:04:53.448Z,954.4
2018-12-08T02:06:03.375Z,954.41
2018-12-08T02:07:13.404Z,954.39
2018-12-08T02:08:23.333Z,954.37
2018-12-08T02:09:33.271Z,954.33
2018-12-08T02:10:43.208Z,954.24
2018-12-08T02:11:53.133Z,954.28
2018-12-08T02:13:03.161Z,954.28
2018-12-08T02:14:13.089Z,954.26
2018-12-08T02:15:23.011Z,954.27
2018-12-08T02:16:33.013Z,954.26
2018-12-08T02:17:42.945Z,954.25
2018-12-08T02:18:53.026Z,954.24
2018-12-08T02:20:02.956Z,954.23
2018-12-08T02:21:12.888Z,954.23
2018-12-08T02:22:22.815Z,954.2
2018-12-08T02:23:32.755Z,954.22
2018-12-08T02:24:42.830Z,954.12
2018-12-08T02:25:52.753Z,954.1
2018-12-08T02:27:02.678Z,954.11
2018-12-08T02:28:12.599Z,954.19
2018-12-08T02:29:22.521Z,954.15
2018-12-08T02:30:32.589Z,954.15
2018-12-08T02:31:42.524Z,954.13
2018-12-08T02:32:52.477Z,954.11
2018-12-08T02:34:02.410Z,954.05
2018-12-08T02:35:12.361Z,954.04
2018-12-08T02:36:22.442Z,954.04
2018-12-08T02:37:32.387Z,954.01
2018-12-08T02:38:42.349Z,953.96
2018-12-08T02:39:52.043Z,953.93
2018-12-08T02:41:02.130Z,953.9
2018-12-08T02:42:11.964Z,953.87
2018-12-08T02:43:21.891Z,953.83
2018-12-08T02:44:31.825Z,953.81
2018-12-08T02:45:41.780Z,953.82
2018-12-08T02:46:51.705Z,953.79
2018-12-08T02:48:01.782Z,953.8
2018-12-08T02:49:11.722Z,953.78
2018-12-08T02:50:21.408Z,953.75
2018-12-08T02:51:31.332Z,953.76
2018-12-08T02:52:41.261Z,953.78
2018-12-08T02:53:51.293Z,953.75
2018-12-08T02:55:01.234Z,953.78
2018-12-08T02:56:11.173Z,953.73
2018-12-08T02:57:21.105Z,953.71
2018-12-08T02:58:31.055Z,953.66
2018-12-08T02:59:41.096Z,953.68
2018-12-08T03:00:51.028Z,953.7
2018-12-08T03:02:00.954Z,953.69
2018-12-08T03:03:10.880Z,953.63
2018-12-08T03:04:20.811Z,953.65
2018-12-08T03:05:30.746Z,953.59
2018-12-08T03:06:40.672Z,953.59
2018-12-08T03:07:50.617Z,953.56
2018-12-08T03:09:00.562Z,953.59
2018-12-08T03:10:10.659Z,953.48
2018-12-08T03:11:20.735Z,953.47
2018-12-08T03:12:30.665Z,953.54
2018-12-08T03:13:40.611Z,953.49
2018-12-08T03:14:50.537Z,953.51
2018-12-08T03:16:00.474Z,953.54
2018-12-08T03:17:10.509Z,953.55
2018-12-08T03:18:20.435Z,953.52
2018-12-08T03:19:30.369Z,953.54
2018-12-08T03:20:40.457Z,953.48
2018-12-08T03:21:50.394Z,953.55
2018-12-08T03:23:00.415Z,953.49
2018-12-08T03:24:10.428Z,953.5
2018-12-08T03:25:20.353Z,953.47
2018-12-08T03:26:30.285Z,953.45
2018-12-08T03:27:40.220Z,953.41
2018-12-08T03:28:50.018Z,953.4
2018-12-08T03:30:00.150Z,953.34
2018-12-08T03:31:10.154Z,953.39
2018-12-08T03:32:20.438Z,953.36
2018-12-08T03:33:30.434Z,953.39
2018-12-08T03:34:40.455Z,953.36
2018-12-08T03:35:50.393Z,953.4
2018-12-08T03:37:00.323Z,953.36
2018-12-08T03:38:10.258Z,953.36
2018-12-08T03:39:20.192Z,953.32
2018-12-08T03:40:30.249Z,953.33
2018-12-08T03:41:40.180Z,953.3
2018-12-08T03:42:50.125Z,953.28
2018-12-08T03:43:59.821Z,953.24
2018-12-08T03:45:09.766Z,953.21
2018-12-08T03:46:19.857Z,953.2
2018-12-08T03:47:29.805Z,953.17
2018-12-08T03:48:39.747Z,953.17
2018-12-08T03:49:49.686Z,953.17
2018-12-08T03:50:59.621Z,953.13
2018-12-08T03:52:09.622Z,953.13
2018-12-08T03:53:19.556Z,953.14
2018-12-08T03:54:29.491Z,953.17
2018-12-08T03:55:39.434Z,953.14
2018-12-08T03:56:50.257Z,953.12
2018-12-08T03:58:00.339Z,953.06
2018-12-08T03:59:10.277Z,953.09
2018-12-08T04:00:20.210Z,953
2018-12-08T04:01:30.174Z,953.05
2018-12-08T04:02:40.135Z,953.02
2018-12-08T04:03:50.170Z,952.99
2018-12-08T04:05:00.109Z,952.94
2018-12-08T04:06:10.044Z,952.93
2018-12-08T04:07:19.988Z,952.91
2018-12-08T04:08:29.926Z,952.88
2018-12-08T04:09:39.868Z,952.89
2018-12-08T04:10:49.827Z,952.89
2018-12-08T04:11:59.768Z,952.89
2018-12-08T04:13:09.713Z,952.9
2018-12-08T04:14:19.648Z,952.87
2018-12-08T04:15:29.591Z,952.91
2018-12-08T04:16:39.526Z,952.9
2018-12-08T04:17:49.469Z,952.91
2018-12-08T04:18:59.403Z,952.88
2018-12-08T04:20:09.345Z,952.89
2018-12-08T04:21:19.428Z,952.81
2018-12-08T04:22:29.369Z,952.81
2018-12-08T04:23:39.297Z,952.85
2018-12-08T04:24:49.225Z,952.83
2018-12-08T04:25:59.172Z,952.82
2018-12-08T04:27:09.055Z,952.83
2018-12-08T04:28:19.018Z,952.83
2018-12-08T04:29:28.949Z,952.8
2018-12-08T04:30:38.880Z,952.83
2018-12-08T04:31:48.807Z,952.85
2018-12-08T04:32:58.508Z,952.85
2018-12-08T04:34:08.437Z,952.83
2018-12-08T04:35:18.371Z,952.89
2018-12-08T04:36:28.315Z,952.91
2018-12-08T04:37:38.263Z,952.86
2018-12-08T04:38:48.341Z,952.88
2018-12-08T04:39:58.289Z,952.87
2018-12-08T04:41:08.257Z,952.86
2018-12-08T04:42:18.188Z,952.84
2018-12-08T04:43:28.268Z,952.81
2018-12-08T04:44:52.983Z,952.86
2018-12-08T04:46:02.953Z,952.82
2018-12-08T04:47:12.888Z,952.85
2018-12-08T04:48:22.842Z,952.82
2018-12-08T04:49:32.819Z,952.8
2018-12-08T04:50:42.744Z,952.82
2018-12-08T04:51:52.682Z,952.79
2018-12-08T04:53:02.628Z,952.82
2018-12-08T04:54:12.587Z,952.76
2018-12-08T04:55:22.675Z,952.79
2018-12-08T04:56:32.601Z,952.77
2018-12-08T04:57:42.541Z,952.69
2018-12-08T04:58:52.473Z,952.65
2018-12-08T05:00:02.396Z,952.68
2018-12-08T05:01:12.451Z,952.64
2018-12-08T05:02:22.132Z,952.65
2018-12-08T05:03:32.064Z,952.62
2018-12-08T05:04:41.990Z,952.63
2018-12-08T05:05:51.920Z,952.64
2018-12-08T05:07:01.897Z,952.64
2018-12-08T05:08:11.888Z,952.59
2018-12-08T05:09:21.860Z,952.62
2018-12-08T05:10:31.784Z,952.64
2018-12-08T05:11:41.468Z,952.58
2018-12-08T05:12:51.393Z,952.58
2018-12-08T05:14:01.350Z,952.56
2018-12-08T05:15:11.276Z,952.57
2018-12-08T05:16:21.199Z,952.58
2018-12-08T05:17:31.127Z,952.57
2018-12-08T05:18:41.104Z,952.58
2018-12-08T05:19:51.028Z,952.55
2018-12-08T05:21:00.952Z,952.5
2018-12-08T05:22:10.878Z,952.54
2018-12-08T05:23:20.549Z,952.55
2018-12-08T05:24:30.521Z,952.51
2018-12-08T05:25:40.448Z,952.5
2018-12-08T05:26:50.377Z,952.48
2018-12-08T05:28:00.304Z,952.49
2018-12-08T05:29:10.314Z,952.43
2018-12-08T05:30:20.357Z,952.41
2018-12-08T05:31:30.284Z,952.36
2018-12-08T05:32:40.211Z,952.31
2018-12-08T05:33:50.146Z,952.39
2018-12-08T05:35:00.070Z,952.37
2018-12-08T05:36:10.139Z,952.41
2018-12-08T05:37:20.076Z,952.38
2018-12-08T05:38:30.001Z,952.4
2018-12-08T05:39:39.933Z,952.4
2018-12-08T05:40:49.863Z,952.3
2018-12-08T05:41:59.938Z,952.35
2018-12-08T05:43:09.870Z,952.33
2018-12-08T05:44:19.798Z,952.27
2018-12-08T05:45:29.726Z,952.32
2018-12-08T05:46:39.727Z,952.24
2018-12-08T05:47:49.836Z,952.26
2018-12-08T05:48:59.834Z,952.2
2018-12-08T05:50:09.761Z,952.32
2018-12-08T05:51:19.692Z,952.27
2018-12-08T05:52:29.624Z,952.25
2018-12-08T05:53:40.079Z,952.31
2018-12-08T05:54:50.012Z,952.33
2018-12-08T05:55:59.946Z,952.27
2018-12-08T05:57:09.989Z,952.26
2018-12-08T05:58:19.914Z,952.23
2018-12-08T05:59:29.943Z,952.19
2018-12-08T06:00:39.871Z,952.17
2018-12-08T06:01:49.795Z,952.22
2018-12-08T06:02:59.718Z,952.18
2018-12-08T06:04:09.647Z,952.19
2018-12-08T06:05:19.656Z,952.21
2018-12-08T06:06:29.599Z,952.16
2018-12-08T06:07:39.522Z,952.15
2018-12-08T06:08:49.446Z,952.18
2018-12-08T06:09:59.375Z,952.18
2018-12-08T06:11:09.405Z,952.15
2018-12-08T06:12:19.328Z,952.1
2018-12-08T06:13:29.254Z,952.09
2018-12-08T06:14:40.112Z,952.04
2018-12-08T06:15:50.195Z,952.03
2018-12-08T06:17:00.275Z,951.99
2018-12-08T06:18:10.202Z,952
2018-12-08T06:19:20.131Z,952.04
2018-12-08T06:20:30.068Z,952
2018-12-08T06:21:40.000Z,951.98
2018-12-08T06:22:50.041Z,951.95
2018-12-08T06:23:59.968Z,951.99
2018-12-08T06:25:09.902Z,951.98
2018-12-08T06:26:19.841Z,952.02
2018-12-08T06:27:29.785Z,952.02
2018-12-08T06:28:39.857Z,952.07
2018-12-08T06:29:49.781Z,952
2018-12-08T06:30:59.789Z,951.99
2018-12-08T06:32:09.717Z,951.95
2018-12-08T06:33:19.647Z,951.94
2018-12-08T06:34:29.681Z,951.96
2018-12-08T06:35:39.608Z,951.96
2018-12-08T06:36:49.537Z,952.03
2018-12-08T06:37:59.206Z,951.99
2018-12-08T06:39:09.133Z,951.98
2018-12-08T06:40:19.207Z,952.02
2018-12-08T06:41:36.685Z,952.03
2018-12-08T06:42:46.613Z,952.08
2018-12-08T06:43:56.289Z,952
2018-12-08T06:45:06.215Z,952.03
2018-12-08T06:46:18.072Z,951.95
2018-12-08T06:47:27.763Z,952.04
2018-12-08T06:48:37.702Z,952
2018-12-08T06:49:47.623Z,952.02
2018-12-08T06:50:57.553Z,952.07
2018-12-08T06:52:07.537Z,952.05
2018-12-08T06:53:17.459Z,952.14
2018-12-08T06:54:27.399Z,952.09
2018-12-08T06:55:37.320Z,952.07
2018-12-08T06:56:47.252Z,952.06
2018-12-08T06:57:57.282Z,951.97
2018-12-08T06:59:07.216Z,952
2018-12-08T07:00:17.145Z,952.03
2018-12-08T07:01:27.073Z,952.01
2018-12-08T07:02:37.001Z,952.02
2018-12-08T07:03:47.075Z,951.99
2018-12-08T07:04:57.005Z,951.97
2018-12-08T07:06:06.933Z,952.01
2018-12-08T07:07:16.893Z,951.98
2018-12-08T07:08:26.816Z,951.96
2018-12-08T07:09:36.842Z,951.89
2018-12-08T07:10:46.764Z,951.84
2018-12-08T07:11:56.693Z,951.84
2018-12-08T07:13:06.618Z,951.85
2018-12-08T07:14:16.546Z,951.86
2018-12-08T07:15:26.524Z,951.88
2018-12-08T07:16:36.454Z,951.93
2018-12-08T07:17:46.377Z,951.95
2018-12-08T07:18:56.310Z,951.94
2018-12-08T07:20:06.241Z,951.93
2018-12-08T07:21:15.716Z,951.91
2018-12-08T07:22:25.643Z,951.93
2018-12-08T07:23:35.574Z,951.93
2018-12-08T07:24:45.502Z,951.84
2018-12-08T07:25:55.426Z,951.85
2018-12-08T07:27:05.775Z,951.8
2018-12-08T07:28:15.702Z,951.79
2018-12-08T07:29:26.571Z,951.82
2018-12-08T07:30:36.494Z,951.81
2018-12-08T07:31:46.428Z,951.8
2018-12-08T07:32:56.401Z,951.78
2018-12-08T07:34:06.329Z,951.8
2018-12-08T07:35:16.254Z,951.81
2018-12-08T07:36:26.185Z,951.81
2018-12-08T07:37:36.113Z,951.81
2018-12-08T07:38:46.140Z,951.73
2018-12-08T07:39:57.593Z,951.73
2018-12-08T07:41:07.637Z,951.74
2018-12-08T07:42:17.671Z,951.69
2018-12-08T07:43:27.600Z,951.68
2018-12-08T07:44:37.573Z,951.67
2018-12-08T07:45:47.495Z,951.68
2018-12-08T07:46:57.536Z,951.6
2018-12-08T07:48:07.468Z,951.62
2018-12-08T07:49:17.403Z,951.62
2018-12-08T07:50:27.388Z,951.59
2018-12-08T07:51:37.318Z,951.57
2018-12-08T07:52:47.239Z,951.58
2018-12-08T07:53:57.166Z,951.64
2018-12-08T07:55:07.100Z,951.63
2018-12-08T07:56:17.083Z,951.65
2018-12-08T07:57:27.010Z,951.67
2018-12-08T07:58:36.938Z,951.64
